Matam, Senegal
Current Conditions -  °F | °C
As of 6:00 AM on Monday 24 Nov 2014 (Local Time) from GOSM Reporting Station
Clear Clear  
Wind Chill: 75°   Ceiling: Unl
Heat Index: 75°   Visibility: 6mi
Dew Point: 55°   Wind: 5mph
Humidity: 50%   Direction: 360°N
Pressure: 29.91"   Gusts: NA
Location:  15.66°N, 13.26°W
Report Text: GOSM 240600Z 36004KT CAVOK 24/13 Q1013
Loading
Personal Weather Stations






























Interactive Weather Map New forecast layout! Learn more

10-Day Weather Forecast

Advertisements
Track Severe Weather on mobile